Time;durP1;ratioP1;P1;durP2;ratioP2;P2;SDS_P1;SDS_P2;PMS_P1;PMS_P2;Temp;Humidity;BMP_temperature;BMP_pressure;BME280_temperature;BME280_humidity;BME280_pressure;Samples;Min_cycle;Max_cycle;Signal;HPM_P1;HPM_P2
2023/07/11 00:01:14;;;;;;;;;;;;;;;18.14;64.81;101062.18;107619;1251;108714;-61
2023/07/11 00:03:43;;;;;;;;;;;;;;;18.11;64.68;101057.94;107547;1254;99060;-61
2023/07/11 00:06:16;;;;;;;;;;;;;;;18.09;64.52;101061.20;107594;1252;99141;-63
2023/07/11 00:08:45;;;;;;;;;;;;;;;18.05;64.92;101062.16;107579;1253;113563;-61
2023/07/11 00:11:15;;;;;;;;;;;;;;;18.01;64.88;101057.90;107633;1254;108740;-62
2023/07/11 00:13:43;;;;;;;;;;;;;;;17.95;65.50;101057.32;107614;1254;109267;-61
2023/07/11 00:16:14;;;;;;;;;;;;;;;17.93;65.62;101056.23;107580;1251;99170;-62
2023/07/11 00:18:42;;;;;;;;;;;;;;;17.91;65.72;101056.25;107610;1254;99261;-62
2023/07/11 00:21:10;;;;;;;;;;;;;;;17.90;65.64;101057.10;107623;1252;112745;-61
2023/07/11 00:23:38;;;;;;;;;;;;;;;17.87;66.57;101054.02;107598;1250;110405;-60
2023/07/11 00:26:06;;;;;;;;;;;;;;;17.81;67.37;101052.17;107588;1256;108941;-61
2023/07/11 00:28:35;;;;;;;;;;;;;;;17.77;67.08;101052.23;107596;1251;99166;-61
2023/07/11 00:31:03;;;;;;;;;;;;;;;17.73;66.97;101053.44;107628;1251;99169;-60
2023/07/11 00:33:31;;;;;;;;;;;;;;;17.70;66.91;101051.58;107617;1255;113726;-61
2023/07/11 00:35:59;;;;;;;;;;;;;;;17.67;66.51;101050.85;107606;1251;109867;-62
2023/07/11 00:38:28;;;;;;;;;;;;;;;17.63;66.67;101052.55;107618;1252;107305;-62
2023/07/11 00:40:56;;;;;;;;;;;;;;;17.60;66.82;101055.47;107566;1254;99874;-61
2023/07/11 00:43:24;;;;;;;;;;;;;;;17.54;67.17;101055.79;107583;1251;99159;-64
2023/07/11 00:46:12;;;;;;;;;;;;;;;17.47;67.51;101058.02;107600;1251;112459;-61
2023/07/11 00:49:00;;;;;;;;;;;;;;;17.44;67.32;101056.40;107596;1251;107664;-64
2023/07/11 00:51:37;;;;;;;;;;;;;;;17.42;67.68;101052.96;107600;1251;106410;-63
2023/07/11 00:54:07;;;;;;;;;;;;;;;17.40;67.73;101051.41;107588;1251;99211;-65
2023/07/11 00:56:38;;;;;;;;;;;;;;;17.39;68.40;101049.00;107556;1251;99156;-62
2023/07/11 00:59:07;;;;;;;;;;;;;;;17.34;68.75;101049.45;107550;1253;112269;-61
2023/07/11 01:01:35;;;;;;;;;;;;;;;17.32;69.08;101047.94;107554;1254;109460;-61
2023/07/11 01:04:08;;;;;;;;;;;;;;;17.29;69.78;101053.51;107602;1253;108038;-62
2023/07/11 01:06:36;;;;;;;;;;;;;;;17.25;70.23;101051.08;107593;1255;99192;-62
2023/07/11 01:09:04;;;;;;;;;;;;;;;17.22;69.64;101048.33;107624;1254;99186;-62
2023/07/11 01:11:49;;;;;;;;;;;;;;;17.21;69.50;101040.75;107576;1254;113431;-62
2023/07/11 01:14:18;;;;;;;;;;;;;;;17.25;69.71;101035.69;107651;1254;108384;-61
2023/07/11 01:16:46;;;;;;;;;;;;;;;17.27;69.85;101038.67;107612;1254;107173;-62
2023/07/11 01:19:14;;;;;;;;;;;;;;;17.27;69.35;101041.21;107639;1252;99157;-60
2023/07/11 01:21:43;;;;;;;;;;;;;;;17.26;69.29;101038.64;107666;1254;99171;-61
2023/07/11 01:24:11;;;;;;;;;;;;;;;17.27;69.38;101036.89;107631;1254;112252;-61
2023/07/11 01:26:39;;;;;;;;;;;;;;;17.26;69.05;101034.13;107602;1255;109309;-62
2023/07/11 01:29:08;;;;;;;;;;;;;;;17.25;69.10;101037.35;107591;1253;107491;-61
2023/07/11 01:31:36;;;;;;;;;;;;;;;17.23;69.23;101036.98;107556;1254;99068;-61
2023/07/11 01:34:07;;;;;;;;;;;;;;;17.19;69.14;101040.66;107600;1252;99060;-60
2023/07/11 01:36:37;;;;;;;;;;;;;;;17.16;70.21;101040.43;107601;1256;113817;-59
2023/07/11 01:39:06;;;;;;;;;;;;;;;17.12;70.14;101039.51;107576;1250;108597;-59
2023/07/11 01:41:34;;;;;;;;;;;;;;;17.09;70.01;101040.95;107590;1251;109510;-60
2023/07/11 01:44:03;;;;;;;;;;;;;;;17.05;70.17;101037.73;107589;1254;99060;-60
2023/07/11 01:46:31;;;;;;;;;;;;;;;16.99;69.98;101037.88;107643;1254;99163;-61
2023/07/11 01:48:59;;;;;;;;;;;;;;;16.94;69.80;101036.25;107600;1251;114182;-61
2023/07/11 01:51:27;;;;;;;;;;;;;;;16.92;69.95;101028.50;107560;1251;108481;-60
2023/07/11 01:53:55;;;;;;;;;;;;;;;16.92;69.90;101031.94;107543;1254;107862;-62
2023/07/11 01:56:23;;;;;;;;;;;;;;;16.89;70.31;101029.27;107566;1256;99199;-60
2023/07/11 01:58:51;;;;;;;;;;;;;;;16.84;69.96;101032.94;107562;1252;99159;-61
2023/07/11 02:01:19;;;;;;;;;;;;;;;16.81;69.89;101029.70;107547;1254;113290;-62
2023/07/11 02:03:47;;;;;;;;;;;;;;;16.78;69.84;101031.03;107652;1254;109383;-61
2023/07/11 02:06:16;;;;;;;;;;;;;;;16.78;70.04;101034.15;107532;1253;108522;-63
2023/07/11 02:08:44;;;;;;;;;;;;;;;16.80;69.88;101039.80;107550;1252;99160;-60
2023/07/11 02:11:13;;;;;;;;;;;;;;;16.78;69.81;101046.25;107604;1256;99830;-62
2023/07/11 02:13:42;;;;;;;;;;;;;;;16.76;69.87;101049.58;107558;1253;113629;-60
2023/07/11 02:16:10;;;;;;;;;;;;;;;16.73;70.12;101047.04;107545;1254;109562;-60
2023/07/11 02:18:38;;;;;;;;;;;;;;;16.70;69.97;101050.48;107577;1254;107715;-61
2023/07/11 02:21:06;;;;;;;;;;;;;;;16.69;70.86;101052.52;107581;1254;99286;-60
2023/07/11 02:23:34;;;;;;;;;;;;;;;16.67;70.60;101051.99;107616;1254;99048;-61
2023/07/11 02:26:02;;;;;;;;;;;;;;;16.64;70.51;101052.20;107620;1254;113158;-60
2023/07/11 02:28:31;;;;;;;;;;;;;;;16.62;70.23;101048.80;107608;1254;108227;-60
2023/07/11 02:30:59;;;;;;;;;;;;;;;16.61;70.28;101054.34;107616;1254;108567;-61
2023/07/11 02:33:27;;;;;;;;;;;;;;;16.61;70.19;101052.02;107555;1254;99296;-62
2023/07/11 02:35:55;;;;;;;;;;;;;;;16.58;70.30;101054.59;107627;1254;99157;-61
2023/07/11 02:38:23;;;;;;;;;;;;;;;16.58;70.41;101054.61;107609;1254;113688;-61
2023/07/11 02:40:51;;;;;;;;;;;;;;;16.58;70.39;101049.58;107609;1254;109914;-60
2023/07/11 02:43:19;;;;;;;;;;;;;;;16.56;70.40;101046.29;107545;1253;107858;-61
2023/07/11 02:45:47;;;;;;;;;;;;;;;16.57;70.51;101047.52;107552;1253;99169;-60
2023/07/11 02:48:16;;;;;;;;;;;;;;;16.55;70.48;101048.17;107619;1253;99075;-64
2023/07/11 02:50:45;;;;;;;;;;;;;;;16.55;70.62;101040.81;107604;1254;112178;-64
2023/07/11 02:53:12;;;;;;;;;;;;;;;16.53;70.76;101040.55;107675;1251;108830;-62
2023/07/11 02:55:41;;;;;;;;;;;;;;;16.54;71.08;101039.11;107600;1251;108293;-61
2023/07/11 02:58:10;;;;;;;;;;;;;;;16.54;71.02;101036.16;107579;1254;99180;-61
2023/07/11 03:00:38;;;;;;;;;;;;;;;16.56;70.81;101035.99;107646;1254;99153;-60
2023/07/11 03:03:06;;;;;;;;;;;;;;;16.58;71.00;101035.80;107619;1255;114438;-61
2023/07/11 03:05:40;;;;;;;;;;;;;;;16.60;71.13;101036.13;107630;1251;110336;-61
2023/07/11 03:08:08;;;;;;;;;;;;;;;16.60;70.93;101035.42;107615;1251;107966;-61
2023/07/11 03:10:37;;;;;;;;;;;;;;;16.61;70.76;101034.57;107615;1251;99176;-62
2023/07/11 03:13:05;;;;;;;;;;;;;;;16.60;70.72;101035.92;107620;1251;99696;-61
2023/07/11 03:15:33;;;;;;;;;;;;;;;16.60;70.75;101033.95;107674;1254;114241;-61
2023/07/11 03:18:02;;;;;;;;;;;;;;;16.61;71.00;101036.98;107627;1251;109615;-61
2023/07/11 03:20:30;;;;;;;;;;;;;;;16.62;70.93;101033.63;107607;1251;108018;-60
2023/07/11 03:22:58;;;;;;;;;;;;;;;16.61;71.41;101033.83;107610;1256;99185;-61
2023/07/11 03:25:26;;;;;;;;;;;;;;;16.63;71.26;101029.89;107647;1254;99075;-61
2023/07/11 03:27:54;;;;;;;;;;;;;;;16.64;71.40;101031.58;107576;1251;112929;-64
2023/07/11 03:30:24;;;;;;;;;;;;;;;16.64;71.69;101030.59;107615;1251;108768;-64
2023/07/11 03:32:52;;;;;;;;;;;;;;;16.69;71.83;101028.50;107621;1251;107618;-64
2023/07/11 03:35:21;;;;;;;;;;;;;;;16.72;71.87;101029.21;107536;1253;99323;-62
2023/07/11 03:37:52;;;;;;;;;;;;;;;16.73;71.68;101026.34;107579;1253;99194;-63
2023/07/11 03:40:24;;;;;;;;;;;;;;;16.76;71.81;101030.60;107510;1254;113500;-61
2023/07/11 03:42:52;;;;;;;;;;;;;;;16.79;71.81;101028.05;107597;1254;109400;-61
2023/07/11 03:45:21;;;;;;;;;;;;;;;16.83;72.22;101028.18;107593;1254;109361;-63
2023/07/11 03:47:49;;;;;;;;;;;;;;;16.87;72.33;101034.09;107559;1251;99163;-61
2023/07/11 03:50:18;;;;;;;;;;;;;;;16.92;72.44;101028.99;107653;1256;99064;-63
2023/07/11 03:52:46;;;;;;;;;;;;;;;16.96;72.00;101026.55;107643;1255;112626;-61
2023/07/11 03:55:14;;;;;;;;;;;;;;;17.01;72.13;101029.95;107608;1251;108095;-62
2023/07/11 03:57:42;;;;;;;;;;;;;;;17.06;72.31;101029.42;107583;1251;107281;-62
2023/07/11 04:00:11;;;;;;;;;;;;;;;17.11;72.14;101031.60;107577;1256;99269;-63
2023/07/11 04:02:41;;;;;;;;;;;;;;;17.15;72.10;101034.83;107625;1251;99179;-63
2023/07/11 04:05:10;;;;;;;;;;;;;;;17.19;72.37;101035.59;107596;1251;114102;-62
2023/07/11 04:07:38;;;;;;;;;;;;;;;17.25;72.48;101031.67;107609;1251;109106;-64
2023/07/11 04:10:07;;;;;;;;;;;;;;;17.32;72.29;101030.20;107544;1256;107162;-62
2023/07/11 04:12:36;;;;;;;;;;;;;;;17.38;72.62;101025.65;107577;1257;99261;-61
2023/07/11 04:15:06;;;;;;;;;;;;;;;17.44;72.95;101027.91;107572;1251;99175;-67
2023/07/11 04:17:34;;;;;;;;;;;;;;;17.49;74.04;101024.43;107621;1252;113548;-61
2023/07/11 04:20:03;;;;;;;;;;;;;;;17.54;73.51;101027.13;107547;1251;109507;-62
2023/07/11 04:22:31;;;;;;;;;;;;;;;17.60;73.36;101027.69;107590;1251;109410;-62
2023/07/11 04:24:59;;;;;;;;;;;;;;;17.68;73.28;101028.13;107535;1256;99259;-62
2023/07/11 04:27:27;;;;;;;;;;;;;;;17.78;73.24;101032.57;107599;1255;99176;-61
2023/07/11 04:29:55;;;;;;;;;;;;;;;17.88;73.39;101032.89;107550;1251;113214;-62
2023/07/11 04:32:23;;;;;;;;;;;;;;;18.00;73.16;101030.41;107574;1251;109827;-61
2023/07/11 04:34:51;;;;;;;;;;;;;;;18.13;72.63;101025.83;107554;1254;107352;-62
2023/07/11 04:37:23;;;;;;;;;;;;;;;18.23;72.54;101016.31;107540;1254;99175;-61
2023/07/11 04:39:51;;;;;;;;;;;;;;;18.34;72.26;101012.66;107547;1251;99344;-66
2023/07/11 04:42:19;;;;;;;;;;;;;;;18.42;71.65;101014.94;107586;1251;113618;-63
2023/07/11 04:44:47;;;;;;;;;;;;;;;18.48;70.19;101012.99;107540;1255;109456;-62
2023/07/11 04:47:16;;;;;;;;;;;;;;;18.56;68.26;101017.36;107610;1254;108243;-63
2023/07/11 04:49:44;;;;;;;;;;;;;;;18.65;67.51;101020.36;107591;1254;99161;-61
2023/07/11 04:52:12;;;;;;;;;;;;;;;18.74;67.16;101021.02;107610;1256;99844;-63
2023/07/11 04:54:40;;;;;;;;;;;;;;;18.84;67.26;101019.70;107522;1254;113202;-62
2023/07/11 04:57:08;;;;;;;;;;;;;;;18.92;66.42;101020.48;107625;1254;110475;-62
2023/07/11 04:59:36;;;;;;;;;;;;;;;19.00;65.71;101021.92;107574;1251;108557;-62
2023/07/11 05:02:04;;;;;;;;;;;;;;;19.06;65.41;101014.27;107494;1254;99172;-61
2023/07/11 05:04:32;;;;;;;;;;;;;;;19.13;65.28;101008.73;107620;1251;99183;-62
2023/07/11 05:07:01;;;;;;;;;;;;;;;19.20;64.72;101012.10;107509;1251;114641;-62
2023/07/11 05:09:29;;;;;;;;;;;;;;;19.26;64.00;101013.98;107532;1251;109443;-60
2023/07/11 05:11:57;;;;;;;;;;;;;;;19.30;63.68;101016.11;107499;1251;108484;-62
2023/07/11 05:14:25;;;;;;;;;;;;;;;19.35;63.01;101019.13;107484;1254;99074;-63
2023/07/11 05:16:53;;;;;;;;;;;;;;;19.40;62.90;101017.66;107637;1254;99154;-63
2023/07/11 05:19:21;;;;;;;;;;;;;;;19.43;61.51;101017.84;107565;1254;112416;-62
2023/07/11 05:21:49;;;;;;;;;;;;;;;19.47;61.47;101013.77;107627;1255;108532;-61
2023/07/11 05:24:17;;;;;;;;;;;;;;;19.51;61.38;101013.92;107593;1255;108757;-62
2023/07/11 05:26:45;;;;;;;;;;;;;;;19.57;60.92;101010.73;107651;1251;99080;-61
2023/07/11 05:29:13;;;;;;;;;;;;;;;19.61;60.26;101006.36;107595;1250;99586;-63
2023/07/11 05:31:41;;;;;;;;;;;;;;;19.67;60.43;101006.02;107613;1252;113897;-62
2023/07/11 05:34:10;;;;;;;;;;;;;;;19.73;60.39;101006.65;107498;1256;109057;-62
2023/07/11 05:36:39;;;;;;;;;;;;;;;19.81;59.91;101009.39;107618;1257;107279;-63
2023/07/11 05:39:13;;;;;;;;;;;;;;;19.87;59.79;101009.73;107525;1251;99159;-64
2023/07/11 05:41:49;;;;;;;;;;;;;;;19.94;59.61;101012.30;107524;1251;99160;-62
2023/07/11 05:44:17;;;;;;;;;;;;;;;20.01;59.62;101015.23;107578;1256;112528;-62
2023/07/11 05:46:45;;;;;;;;;;;;;;;20.07;59.23;101010.34;107573;1251;109056;-62
2023/07/11 05:49:15;;;;;;;;;;;;;;;20.13;58.12;101010.31;107626;1257;109403;-62
2023/07/11 05:51:43;;;;;;;;;;;;;;;20.20;57.85;101007.45;107647;1254;99068;-63
2023/07/11 05:54:11;;;;;;;;;;;;;;;20.25;57.29;101005.70;107541;1251;99310;-62
2023/07/11 05:56:40;;;;;;;;;;;;;;;20.30;56.17;101008.31;107514;1251;112814;-64
2023/07/11 05:59:08;;;;;;;;;;;;;;;20.36;56.15;101009.46;107497;1255;110637;-61
2023/07/11 06:01:36;;;;;;;;;;;;;;;20.42;56.43;101005.91;107655;1251;107839;-63
2023/07/11 06:04:10;;;;;;;;;;;;;;;20.49;56.60;101001.09;107535;1250;99083;-63
2023/07/11 06:06:41;;;;;;;;;;;;;;;20.57;56.68;100997.70;107523;1250;99198;-62
2023/07/11 06:09:14;;;;;;;;;;;;;;;20.62;56.10;100999.60;107567;1251;112579;-61
2023/07/11 06:11:43;;;;;;;;;;;;;;;20.69;56.07;101002.14;107582;1251;108889;-63
2023/07/11 06:14:11;;;;;;;;;;;;;;;20.76;56.14;101001.80;107512;1254;108388;-62
2023/07/11 06:16:41;;;;;;;;;;;;;;;20.84;56.30;100996.80;107595;1254;99174;-62
2023/07/11 06:19:09;;;;;;;;;;;;;;;20.91;55.97;100995.77;107523;1257;99650;-61
2023/07/11 06:21:37;;;;;;;;;;;;;;;20.99;56.02;100991.95;107551;1257;114079;-62
2023/07/11 06:24:06;;;;;;;;;;;;;;;21.06;55.44;100993.05;107673;1254;109763;-62
2023/07/11 06:26:34;;;;;;;;;;;;;;;21.15;55.02;100991.17;107598;1256;107730;-62
2023/07/11 06:29:02;;;;;;;;;;;;;;;21.23;55.11;100984.32;107573;1254;99164;-61
2023/07/11 06:31:30;;;;;;;;;;;;;;;21.33;55.13;100986.27;107634;1254;99231;-63
2023/07/11 06:33:58;;;;;;;;;;;;;;;21.42;55.07;100985.61;107587;1254;113131;-64
2023/07/11 06:36:26;;;;;;;;;;;;;;;21.50;54.51;100983.54;107611;1252;110143;-63
2023/07/11 06:38:54;;;;;;;;;;;;;;;21.55;53.72;100977.45;107526;1254;108955;-62
2023/07/11 06:41:22;;;;;;;;;;;;;;;21.65;54.13;100979.50;107564;1253;99060;-63
2023/07/11 06:43:52;;;;;;;;;;;;;;;21.74;53.96;100979.61;107604;1254;99310;-62
2023/07/11 06:46:22;;;;;;;;;;;;;;;21.83;53.85;100976.98;107659;1251;112526;-63
2023/07/11 06:48:53;;;;;;;;;;;;;;;21.89;53.53;100974.40;107562;1254;108736;-62
2023/07/11 06:51:21;;;;;;;;;;;;;;;21.97;53.33;100972.77;107586;1251;108009;-61
2023/07/11 06:53:49;;;;;;;;;;;;;;;22.03;52.95;100977.38;107591;1251;99188;-63
2023/07/11 06:56:18;;;;;;;;;;;;;;;22.13;52.82;100978.48;107604;1251;99058;-61
2023/07/11 06:58:47;;;;;;;;;;;;;;;22.22;52.32;100972.65;107518;1251;113518;-60
2023/07/11 07:01:22;;;;;;;;;;;;;;;22.33;51.49;100969.13;107643;1254;107808;-62
2023/07/11 07:04:04;;;;;;;;;;;;;;;22.49;51.73;100965.07;107580;1251;107802;-60
2023/07/11 07:06:35;;;;;;;;;;;;;;;22.67;51.64;100955.70;107600;1255;99365;-62
2023/07/11 07:09:04;;;;;;;;;;;;;;;22.86;50.96;100955.09;107685;1256;99166;-61
2023/07/11 07:11:32;;;;;;;;;;;;;;;23.02;50.32;100952.42;107630;1253;113391;-64
2023/07/11 07:14:08;;;;;;;;;;;;;;;23.13;50.33;100947.92;107659;1255;109910;-61
2023/07/11 07:16:37;;;;;;;;;;;;;;;23.19;50.16;100949.88;107532;1254;107376;-62
2023/07/11 07:19:06;;;;;;;;;;;;;;;23.24;50.06;100944.85;107535;1251;99054;-61
2023/07/11 07:21:34;;;;;;;;;;;;;;;23.27;49.27;100942.00;107553;1251;99166;-62
2023/07/11 07:24:02;;;;;;;;;;;;;;;23.32;49.29;100933.13;107562;1251;113169;-62
2023/07/11 07:26:30;;;;;;;;;;;;;;;23.38;48.85;100929.84;107539;1254;109551;-63
2023/07/11 07:28:58;;;;;;;;;;;;;;;23.47;49.08;100932.48;107527;1251;107399;-61
2023/07/11 07:31:26;;;;;;;;;;;;;;;23.54;48.75;100923.94;107533;1251;99169;-62
2023/07/11 07:33:54;;;;;;;;;;;;;;;23.59;49.22;100925.77;107561;1251;99259;-61
2023/07/11 07:36:22;;;;;;;;;;;;;;;23.67;49.37;100923.12;107499;1251;113366;-61
2023/07/11 07:38:50;;;;;;;;;;;;;;;23.73;48.69;100919.45;107501;1251;109420;-67
2023/07/11 07:41:20;;;;;;;;;;;;;;;23.81;48.30;100917.57;107499;1251;108115;-61
2023/07/11 07:43:48;;;;;;;;;;;;;;;23.86;47.58;100920.05;107496;1251;99259;-62
2023/07/11 07:46:17;;;;;;;;;;;;;;;23.91;48.20;100910.42;107624;1251;99064;-60
2023/07/11 07:48:45;;;;;;;;;;;;;;;24.00;48.43;100903.16;107494;1250;113164;-63
2023/07/11 07:51:15;;;;;;;;;;;;;;;24.09;48.94;100902.33;107551;1251;109858;-62
2023/07/11 07:53:43;;;;;;;;;;;;;;;24.18;48.65;100898.96;107484;1254;107619;-62
2023/07/11 07:56:13;;;;;;;;;;;;;;;24.26;48.11;100906.02;107511;1251;99283;-61
2023/07/11 07:58:41;;;;;;;;;;;;;;;24.34;47.48;100908.67;107479;1251;99301;-61
2023/07/11 08:01:13;;;;;;;;;;;;;;;24.43;46.94;100907.16;107550;1251;112607;-61
2023/07/11 08:03:41;;;;;;;;;;;;;;;24.50;46.62;100907.75;106941;1251;979332;-64
2023/07/11 08:06:10;;;;;;;;;;;;;;;24.58;45.28;100909.45;107556;1251;107690;-63
2023/07/11 08:08:45;;;;;;;;;;;;;;;24.66;44.72;100908.86;107512;1251;99157;-63
2023/07/11 08:11:14;;;;;;;;;;;;;;;24.73;45.22;100908.61;107593;1251;99203;-62
2023/07/11 08:13:42;;;;;;;;;;;;;;;24.82;44.52;100908.56;107539;1250;112732;-61
2023/07/11 08:16:15;;;;;;;;;;;;;;;24.93;44.17;100903.77;107459;1251;110288;-62
2023/07/11 08:18:58;;;;;;;;;;;;;;;25.07;43.52;100912.77;107593;1254;108399;-61
2023/07/11 08:21:26;;;;;;;;;;;;;;;25.18;42.88;100907.60;107675;1257;99173;-61
2023/07/11 08:23:55;;;;;;;;;;;;;;;25.27;42.79;100905.66;107630;1254;99060;-61
2023/07/11 08:26:24;;;;;;;;;;;;;;;25.38;43.01;100902.10;107631;1253;112777;-62
2023/07/11 08:28:52;;;;;;;;;;;;;;;25.53;42.51;100904.36;107587;1251;110380;-62
2023/07/11 08:31:20;;;;;;;;;;;;;;;25.67;42.59;100906.67;107619;1254;106715;-62
2023/07/11 08:33:49;;;;;;;;;;;;;;;25.82;41.83;100910.48;107650;1254;99271;-61
2023/07/11 08:36:17;;;;;;;;;;;;;;;25.93;40.96;100908.20;107639;1252;99182;-66
2023/07/11 08:38:51;;;;;;;;;;;;;;;26.01;41.22;100900.01;107622;1251;113158;-61
2023/07/11 08:41:22;;;;;;;;;;;;;;;26.16;41.67;100901.70;107660;1251;109105;-63
2023/07/11 08:43:53;;;;;;;;;;;;;;;26.37;41.41;100899.44;107506;1251;107681;-62
2023/07/11 08:46:22;;;;;;;;;;;;;;;26.61;40.97;100905.84;107664;1254;99287;-64
2023/07/11 08:48:53;;;;;;;;;;;;;;;26.85;40.16;100903.55;107664;1250;99076;-62
2023/07/11 08:51:24;;;;;;;;;;;;;;;27.06;39.43;100902.73;107551;1251;113648;-62
2023/07/11 08:54:18;;;;;;;;;;;;;;;27.20;38.09;100914.29;107509;1254;109293;-63
2023/07/11 08:56:50;;;;;;;;;;;;;;;27.50;38.42;100910.27;107479;1251;107706;-63
2023/07/11 08:59:37;;;;;;;;;;;;;;;27.84;37.72;100908.75;107473;1251;99172;-66
2023/07/11 09:02:05;;;;;;;;;;;;;;;28.35;38.14;100906.44;107522;1251;99301;-63
2023/07/11 09:04:36;;;;;;;;;;;;;;;28.68;36.43;100914.53;107527;1251;113537;-65
2023/07/11 09:07:13;;;;;;;;;;;;;;;28.97;36.97;100912.24;107507;1251;108260;-64
2023/07/11 09:09:41;;;;;;;;;;;;;;;29.11;36.14;100908.70;107495;1251;107724;-66
2023/07/11 09:12:39;;;;;;;;;;;;;;;29.07;36.15;100907.94;107516;1251;99166;-63
2023/07/11 09:15:10;;;;;;;;;;;;;;;28.91;35.77;100900.36;107512;1251;99122;-62
2023/07/11 09:17:58;;;;;;;;;;;;;;;28.74;36.06;100908.75;107502;1251;115789;-63
2023/07/11 09:20:42;;;;;;;;;;;;;;;28.51;36.26;100906.02;107494;1251;108059;-63
2023/07/11 09:23:13;;;;;;;;;;;;;;;28.43;37.43;100904.57;107447;1254;107528;-62
2023/07/11 09:26:00;;;;;;;;;;;;;;;28.36;37.09;100907.90;107618;1254;99169;-62
2023/07/11 09:28:32;;;;;;;;;;;;;;;28.21;36.24;100908.88;107668;1251;99168;-62
2023/07/11 09:31:02;;;;;;;;;;;;;;;28.07;36.67;100904.98;107511;1251;111161;-63
2023/07/11 09:33:32;;;;;;;;;;;;;;;27.94;37.28;100903.80;107532;1254;109224;-64
2023/07/11 09:36:03;;;;;;;;;;;;;;;27.83;37.18;100898.29;107664;1251;108179;-62
2023/07/11 09:38:36;;;;;;;;;;;;;;;27.72;37.28;100896.83;107463;1251;99080;-63
2023/07/11 09:41:04;;;;;;;;;;;;;;;27.44;37.09;100896.89;107604;1255;99184;-63
2023/07/11 09:43:32;;;;;;;;;;;;;;;27.19;37.31;100894.23;107591;1256;112698;-64
2023/07/11 09:46:00;;;;;;;;;;;;;;;26.97;37.73;100892.78;107639;1256;109276;-64
2023/07/11 09:48:31;;;;;;;;;;;;;;;26.80;37.70;100897.86;107563;1251;106387;-61
2023/07/11 09:50:59;;;;;;;;;;;;;;;26.65;37.55;100896.55;107565;1256;99027;-62
2023/07/11 09:53:31;;;;;;;;;;;;;;;26.51;38.30;100898.55;107560;1251;99147;-62
2023/07/11 09:56:00;;;;;;;;;;;;;;;26.44;38.97;100900.59;107484;1250;112705;-61
2023/07/11 09:58:45;;;;;;;;;;;;;;;26.35;39.70;100898.02;107515;1251;109884;-61
2023/07/11 10:01:18;;;;;;;;;;;;;;;26.33;40.81;100893.34;107454;1251;108407;-63
2023/07/11 10:03:47;;;;;;;;;;;;;;;26.29;41.34;100891.81;107493;1251;99163;-61
2023/07/11 10:06:34;;;;;;;;;;;;;;;26.29;42.43;100889.70;107523;1250;99170;-64
2023/07/11 10:09:17;;;;;;;;;;;;;;;26.30;43.79;100881.36;107500;1251;113524;-62
2023/07/11 10:11:58;;;;;;;;;;;;;;;26.32;44.25;100877.88;107493;1251;110070;-62
2023/07/11 10:14:29;;;;;;;;;;;;;;;26.40;45.72;100874.26;107532;1251;108439;-61
2023/07/11 10:16:58;;;;;;;;;;;;;;;26.44;46.77;100867.06;107497;1250;99159;-63
2023/07/11 10:19:27;;;;;;;;;;;;;;;26.51;47.79;100864.46;107583;1251;99145;-63
2023/07/11 10:21:58;;;;;;;;;;;;;;;26.61;47.32;100860.42;107501;1251;113377;-64
2023/07/11 10:24:34;;;;;;;;;;;;;;;26.80;47.84;100857.50;107497;1254;109448;-61
2023/07/11 10:27:06;;;;;;;;;;;;;;;26.95;47.53;100855.23;107507;1254;108430;-62
2023/07/11 10:29:40;;;;;;;;;;;;;;;27.11;46.95;100849.17;107502;1251;99162;-62
2023/07/11 10:32:14;;;;;;;;;;;;;;;27.21;47.00;100847.21;107480;1251;99054;-62
2023/07/11 10:34:45;;;;;;;;;;;;;;;27.30;46.93;100841.70;107558;1253;113077;-61
2023/07/11 10:37:24;;;;;;;;;;;;;;;27.32;47.28;100843.27;107597;1251;110026;-63
2023/07/11 10:39:55;;;;;;;;;;;;;;;27.24;48.03;100860.23;107642;1251;107619;-61
2023/07/11 10:42:30;;;;;;;;;;;;;;;26.97;44.86;100868.36;107539;1251;99162;-62
2023/07/11 10:45:13;;;;;;;;;;;;;;;26.62;44.06;100871.27;107590;1254;99258;-63
2023/07/11 10:47:48;;;;;;;;;;;;;;;26.20;44.47;100880.70;107627;1256;113307;-62
2023/07/11 10:50:30;;;;;;;;;;;;;;;25.94;45.13;100875.07;107621;1253;109485;-62
2023/07/11 10:53:01;;;;;;;;;;;;;;;25.86;46.04;100872.58;107628;1251;108949;-62
2023/07/11 10:55:37;;;;;;;;;;;;;;;25.97;46.14;100871.91;107487;1251;99182;-62
2023/07/11 10:58:09;;;;;;;;;;;;;;;26.39;46.09;100866.89;107532;1251;99182;-62
2023/07/11 11:00:46;;;;;;;;;;;;;;;27.10;44.43;100873.21;107688;1253;113208;-63
2023/07/11 11:03:26;;;;;;;;;;;;;;;27.31;43.35;100873.31;107622;1251;109685;-62
2023/07/11 11:05:54;;;;;;;;;;;;;;;28.08;42.16;100873.90;107650;1251;108632;-62
2023/07/11 11:08:36;;;;;;;;;;;;;;;28.28;41.10;100875.67;107592;1254;99056;-62
2023/07/11 11:11:29;;;;;;;;;;;;;;;28.56;40.49;100871.45;107622;1254;99248;-61
2023/07/11 11:13:57;;;;;;;;;;;;;;;29.03;39.57;100870.71;107526;1251;113315;-62
2023/07/11 11:16:26;;;;;;;;;;;;;;;29.37;39.20;100857.23;107522;1251;110207;-61
2023/07/11 11:18:59;;;;;;;;;;;;;;;29.69;38.25;100860.01;107527;1254;108332;-60
2023/07/11 11:21:48;;;;;;;;;;;;;;;30.10;37.56;100855.23;107534;1251;99244;-63
2023/07/11 11:24:39;;;;;;;;;;;;;;;30.04;36.85;100860.13;107420;1251;99329;-62
2023/07/11 11:27:26;;;;;;;;;;;;;;;30.20;37.25;100854.86;107477;1251;113729;-62
2023/07/11 11:29:57;;;;;;;;;;;;;;;31.09;36.59;100852.14;107577;1250;109389;-62
2023/07/11 11:32:31;;;;;;;;;;;;;;;31.63;34.95;100852.02;107489;1251;107067;-64
2023/07/11 11:35:12;;;;;;;;;;;;;;;32.22;35.09;100847.70;107545;1251;99208;-66
2023/07/11 11:38:04;;;;;;;;;;;;;;;33.15;33.39;100857.48;107639;1254;99259;-62
2023/07/11 11:40:36;;;;;;;;;;;;;;;33.70;31.51;100856.77;107677;1251;112388;-63
2023/07/11 11:43:06;;;;;;;;;;;;;;;33.85;30.95;100850.41;107634;1251;109665;-62
2023/07/11 11:45:46;;;;;;;;;;;;;;;34.39;30.69;100842.58;107623;1252;107805;-62
2023/07/11 11:48:25;;;;;;;;;;;;;;;34.34;30.80;100849.08;107700;1251;99268;-61
2023/07/11 11:50:58;;;;;;;;;;;;;;;34.56;30.23;100841.52;107497;1251;99185;-62
2023/07/11 11:53:46;;;;;;;;;;;;;;;34.58;29.80;100833.05;107531;1250;113313;-62
2023/07/11 11:56:16;;;;;;;;;;;;;;;35.28;30.08;100830.21;107508;1251;110108;-62
2023/07/11 11:58:57;;;;;;;;;;;;;;;35.88;28.93;100825.20;107548;1250;107766;-62
2023/07/11 12:01:51;;;;;;;;;;;;;;;36.63;28.43;100821.18;107484;1251;99157;-62
2023/07/11 12:04:35;;;;;;;;;;;;;;;37.35;27.31;100810.65;107410;1251;99249;-61
2023/07/11 12:07:06;;;;;;;;;;;;;;;37.93;27.07;100809.81;107519;1254;113517;-63
2023/07/11 12:09:38;;;;;;;;;;;;;;;38.21;25.19;100807.67;107641;1254;109950;-61
2023/07/11 12:12:25;;;;;;;;;;;;;;;38.35;25.23;100797.06;107627;1254;108200;-63
2023/07/11 12:14:53;;;;;;;;;;;;;;;38.44;23.92;100802.30;107668;1253;99263;-65
2023/07/11 12:17:33;;;;;;;;;;;;;;;37.74;24.15;100804.09;107642;1254;99173;-61
2023/07/11 12:20:07;;;;;;;;;;;;;;;37.83;24.28;100794.45;107524;1251;113548;-61
2023/07/11 12:22:39;;;;;;;;;;;;;;;38.15;24.08;100794.08;107489;1251;110295;-61
2023/07/11 12:25:28;;;;;;;;;;;;;;;37.98;23.88;100786.23;107536;1250;108532;-62
2023/07/11 12:28:02;;;;;;;;;;;;;;;38.21;25.03;100779.45;107521;1251;99175;-62
2023/07/11 12:30:33;;;;;;;;;;;;;;;38.68;24.29;100778.19;107529;1251;99164;-62
2023/07/11 12:33:20;;;;;;;;;;;;;;;39.04;22.76;100775.14;107537;1251;113952;-61
2023/07/11 12:36:16;;;;;;;;;;;;;;;39.05;23.04;100773.27;107649;1251;110026;-63
2023/07/11 12:38:51;;;;;;;;;;;;;;;38.80;22.96;100767.33;107580;1251;107578;-61
2023/07/11 12:41:27;;;;;;;;;;;;;;;39.18;22.74;100766.88;107612;1251;99032;-64